Time;durP1;ratioP1;P1;durP2;ratioP2;P2;SDS_P1;SDS_P2;PMS_P1;PMS_P2;Temp;Humidity;BMP_temperature;BMP_pressure;BME280_temperature;BME280_humidity;BME280_pressure;Samples;Min_cycle;Max_cycle;Signal;HPM_P1;HPM_P2
2022/01/09 00:04:27;;;;;;;0.20;0.20;;;;;;;;;;20863671;28;20601;-79
2022/01/09 00:14:29;;;;;;;0.10;0.10;;;;;;;;;;20815506;28;20257;-78
2022/01/09 00:24:30;;;;;;;0.07;0.07;;;;;;;;;;20831380;28;20579;-79
2022/01/09 00:34:32;;;;;;;0.10;0.10;;;;;;;;;;20796507;28;20230;-79
2022/01/09 00:44:34;;;;;;;0.00;0.00;;;;;;;;;;20827678;28;20219;-79
2022/01/09 00:54:36;;;;;;;0.20;0.20;;;;;;;;;;20828242;28;20296;-79
2022/01/09 01:04:39;;;;;;;0.10;0.10;;;;;;;;;;20795528;28;20276;-79
2022/01/09 01:14:42;;;;;;;0.20;0.20;;;;;;;;;;20808590;28;20272;-79
2022/01/09 01:24:45;;;;;;;0.70;0.30;;;;;;;;;;20825991;28;20215;-78
2022/01/09 01:34:48;;;;;;;0.07;0.07;;;;;;;;;;20812813;28;20300;-78
2022/01/09 01:44:50;;;;;;;0.10;0.10;;;3.80;99.90;;;;;;20806064;28;20210;-79
2022/01/09 01:54:52;;;;;;;0.20;0.20;;;;;;;;;;20823759;28;20214;-78
2022/01/09 02:04:54;;;;;;;0.27;0.20;;;;;;;;;;20826120;28;20567;-79
2022/01/09 02:14:56;;;;;;;0.00;0.00;;;;;;;;;;20788142;28;20261;-79
2022/01/09 02:24:58;;;;;;;0.10;0.10;;;;;;;;;;20825591;28;20255;-80
2022/01/09 02:35:00;;;;;;;0.00;0.00;;;;;;;;;;20774563;28;20223;-79
2022/01/09 02:45:02;;;;;;;0.03;0.03;;;;;;;;;;20817248;28;20214;-79
2022/01/09 03:05:06;;;;;;;0.10;0.10;;;;;;;;;;20805538;28;20218;-79
2022/01/09 03:15:09;;;;;;;0.00;0.00;;;;;;;;;;20828666;28;20307;-80
2022/01/09 03:25:11;;;;;;;0.00;0.00;;;;;;;;;;20835563;28;20215;-80
2022/01/09 03:35:15;;;;;;;0.10;0.10;;;;;;;;;;20819407;28;20219;-80
2022/01/09 03:45:17;;;;;;;0.10;0.10;;;;;;;;;;20834419;28;20236;-79
2022/01/09 03:55:19;;;;;;;0.10;0.10;;;;;;;;;;20817942;28;20226;-81
2022/01/09 04:05:21;;;;;;;0.10;0.10;;;;;;;;;;20816864;28;20277;-80
2022/01/09 04:15:23;;;;;;;0.00;0.00;;;;;;;;;;20830985;28;20234;-81
2022/01/09 04:25:26;;;;;;;0.00;0.00;;;;;;;;;;20814826;28;20718;-81
2022/01/09 04:35:27;;;;;;;0.00;0.00;;;;;;;;;;20830096;28;20226;-81
2022/01/09 04:45:30;;;;;;;0.10;0.10;;;;;;;;;;20812638;28;20233;-80
2022/01/09 04:55:32;;;;;;;0.10;0.10;;;;;;;;;;20824853;28;20292;-79
2022/01/09 05:05:34;;;;;;;0.10;0.10;;;;;;;;;;20775724;28;20199;-80
2022/01/09 05:15:37;;;;;;;0.00;0.00;;;;;;;;;;20799761;28;20761;-80
2022/01/09 05:25:38;;;;;;;0.10;0.10;;;;;;;;;;20793577;28;20217;-80
2022/01/09 05:35:40;;;;;;;0.23;0.20;;;;;;;;;;20824969;28;20252;-81
2022/01/09 05:45:42;;;;;;;0.50;0.10;;;;;;;;;;20807785;28;20565;-80
2022/01/09 05:55:44;;;;;;;1.03;0.27;;;;;;;;;;20809912;28;20308;-81
2022/01/09 06:05:46;;;;;;;0.10;0.10;;;;;;;;;;20807592;28;20237;-81
2022/01/09 06:15:47;;;;;;;1.70;0.63;;;;;;;;;;20790032;28;20230;-80
2022/01/09 06:25:50;;;;;;;3.30;0.47;;;;;;;;;;20806834;28;20219;-81
2022/01/09 06:35:52;;;;;;;0.30;0.20;;;;;;;;;;20822203;28;20218;-80
2022/01/09 06:45:54;;;;;;;0.83;0.57;;;;;;;;;;20822424;28;20218;-81
2022/01/09 06:55:56;;;;;;;0.10;0.10;;;;;;;;;;20804886;28;20234;-81
2022/01/09 07:05:58;;;;;;;0.70;0.10;;;;;;;;;;20821624;28;20668;-79
2022/01/09 07:15:59;;;;;;;0.10;0.10;;;;;;;;;;20837912;28;20234;-80
2022/01/09 07:26:01;;;;;;;0.20;0.20;;;;;;;;;;20821867;28;20214;-81
2022/01/09 07:36:03;;;;;;;0.20;0.20;;;;;;;;;;20818487;28;20280;-81
2022/01/09 07:46:04;;;;;;;1.30;0.17;;;;;;;;;;20804295;28;20261;-80
2022/01/09 07:56:06;;;;;;;0.20;0.20;;;;;;;;;;20794302;28;20632;-81
2022/01/09 08:06:08;;;;;;;0.20;0.20;;;;;;;;;;20832830;28;20245;-81
2022/01/09 08:16:10;;;;;;;0.17;0.13;;;;;;;;;;20816611;28;20308;-81
2022/01/09 08:26:12;;;;;;;0.67;0.57;;;;;;;;;;20831254;28;20270;-80
2022/01/09 08:36:13;;;;;;;0.27;0.20;;;;;;;;;;20797113;28;20292;-81
2022/01/09 08:46:16;;;;;;;0.30;0.30;;;;;;;;;;20811206;28;20241;-81
2022/01/09 08:56:19;;;;;;;0.60;0.30;;;4.30;99.90;;;;;;20818758;28;20226;-80
2022/01/09 09:06:21;;;;;;;0.20;0.20;;;;;;;;;;20838856;28;20218;-80
2022/01/09 09:16:22;;;;;;;0.10;0.10;;;;;;;;;;20803896;28;20222;-81
2022/01/09 09:26:24;;;;;;;1.53;0.60;;;;;;;;;;20807592;28;20321;-81
2022/01/09 09:36:26;;;;;;;0.50;0.20;;;;;;;;;;20820437;28;20230;-82
2022/01/09 09:46:28;;;;;;;1.67;0.50;;;;;;;;;;20822750;28;20214;-80
2022/01/09 09:56:30;;;;;;;2.57;0.20;;;;;;;;;;20807128;28;20592;-81
2022/01/09 10:06:36;;;;;;;0.40;0.40;;;;;;;;;;20823650;28;20566;-81
2022/01/09 10:16:38;;;;;;;0.10;0.10;;;;;;;;;;20789593;28;20304;-81
2022/01/09 10:26:41;;;;;;;0.20;0.17;;;;;;;;;;20833697;28;20218;-79
2022/01/09 10:36:44;;;;;;;0.87;0.40;;;;;;;;;;20833227;28;20292;-80
2022/01/09 10:46:57;;;;;;;0.20;0.20;;;;;;;;;;20836509;28;20214;-81
2022/01/09 10:57:12;;;;;;;0.00;0.00;;;;;;;;;;20844695;28;20218;-82
2022/01/09 11:07:16;;;;;;;0.40;0.20;;;5.40;99.90;;;;;;20846531;28;20214;-81
2022/01/09 11:17:20;;;;;;;0.40;0.27;;;;;;;;;;20801406;28;20230;-81
2022/01/09 11:27:28;;;;;;;2.73;0.73;;;;;;;;;;20800465;28;20276;-82
2022/01/09 11:37:44;;;;;;;1.57;0.27;;;;;;;;;;20817850;28;20234;-81
2022/01/09 11:47:50;;;;;;;0.20;0.20;;;;;;;;;;20823411;28;20249;-82
2022/01/09 11:58:00;;;;;;;0.20;0.20;;;6.80;99.90;;;;;;20837540;28;20223;-82
2022/01/09 12:08:02;;;;;;;0.87;0.30;;;;;;;;;;20812476;28;20272;-84
2022/01/09 12:18:04;;;;;;;1.47;0.23;;;;;;;;;;20803912;28;20234;-82
2022/01/09 12:28:14;;;;;;;1.80;0.37;;;;;;;;;;20805206;28;20618;-81
2022/01/09 12:38:17;;;;;;;2.80;1.10;;;;;;;;;;20809237;28;20299;-81
2022/01/09 12:48:27;;;;;;;0.70;0.50;;;6.50;99.90;;;;;;20785422;28;20207;-80
2022/01/09 12:58:37;;;;;;;0.20;0.20;;;;;;;;;;20813584;28;20711;-83
2022/01/09 13:08:41;;;;;;;1.10;0.63;;;;;;;;;;20751880;28;20231;-81
2022/01/09 13:18:44;;;;;;;0.80;0.60;;;;;;;;;;20789339;28;20781;-81
2022/01/09 13:28:47;;;;;;;1.67;0.20;;;;;;;;;;20795699;28;20207;-82
2022/01/09 13:38:49;;;;;;;1.03;0.50;;;;;;;;;;20823617;28;20226;-80
2022/01/09 13:48:51;;;;;;;1.13;0.20;;;;;;;;;;20787534;28;20655;-80
2022/01/09 13:58:57;;;;;;;3.50;0.60;;;;;;;;;;20760004;28;20707;-81
2022/01/09 14:08:59;;;;;;;1.50;0.90;;;;;;;;;;20836759;28;20226;-80
2022/01/09 14:19:05;;;;;;;0.23;0.13;;;;;;;;;;20792829;28;20246;-80
2022/01/09 14:29:07;;;;;;;0.97;0.73;;;;;;;;;;20799532;28;20210;-80
2022/01/09 14:39:10;;;;;;;0.40;0.20;;;;;;;;;;20827243;28;20315;-80
2022/01/09 14:49:13;;;;;;;0.90;0.53;;;;;;;;;;20854205;28;20280;-80
2022/01/09 14:59:16;;;;;;;0.83;0.50;;;;;;;;;;20833872;28;20269;-79
2022/01/09 15:09:17;;;;;;;0.27;0.20;;;;;;;;;;20751201;28;20219;-80
2022/01/09 15:19:20;;;;;;;0.57;0.23;;;;;;;;;;20837530;28;20234;-80
2022/01/09 15:29:22;;;;;;;0.13;0.13;;;;;;;;;;20834437;28;20257;-80
2022/01/09 15:39:24;;;;;;;2.23;0.40;;;;;;;;;;20842330;28;20257;-79
2022/01/09 15:49:26;;;;;;;1.93;1.17;;;;;;;;;;20837550;28;20211;-80
2022/01/09 15:59:28;;;;;;;0.70;0.40;;;;;;;;;;20820363;28;20214;-80
2022/01/09 16:09:30;;;;;;;0.17;0.17;;;;;;;;;;20818870;28;20250;-80
2022/01/09 16:19:31;;;;;;;0.70;0.40;;;;;;;;;;20833293;28;20784;-79
2022/01/09 16:29:34;;;;;;;0.43;0.27;;;;;;;;;;20802825;28;20696;-80
2022/01/09 16:39:35;;;;;;;3.50;1.10;;;;;;;;;;20852580;28;20230;-79
2022/01/09 16:49:37;;;;;;;3.90;0.93;;;;;;;;;;20777771;28;20230;-80
2022/01/09 16:59:39;;;;;;;4.83;0.77;;;;;;;;;;20806964;28;20238;-79
2022/01/09 17:09:40;;;;;;;1.07;0.60;;;;;;;;;;20829121;28;20255;-79
2022/01/09 17:19:42;;;;;;;4.47;1.00;;;;;;;;;;20818799;28;20566;-79
2022/01/09 17:29:45;;;;;;;0.93;0.70;;;;;;;;;;20800267;28;20252;-79
2022/01/09 17:39:48;;;;;;;0.90;0.40;;;;;;;;;;20815325;28;20280;-79
2022/01/09 17:49:51;;;;;;;3.90;0.83;;;;;;;;;;20844413;28;20218;-80
2022/01/09 17:59:53;;;;;;;0.73;0.40;;;;;;;;;;20830593;28;20712;-79
2022/01/09 18:09:58;;;;;;;0.83;0.50;;;;;;;;;;20790967;28;20226;-80
2022/01/09 18:19:59;;;;;;;0.60;0.40;;;;;;;;;;20819685;28;20288;-81
2022/01/09 18:30:02;;;;;;;0.53;0.27;;;;;;;;;;20816110;28;20276;-81
2022/01/09 18:40:05;;;;;;;0.70;0.60;;;;;;;;;;20814303;28;20644;-80
2022/01/09 18:50:07;;;;;;;1.30;0.40;;;;;;;;;;20845136;28;20222;-80
2022/01/09 19:00:11;;;;;;;0.47;0.37;;;4.60;99.90;;;;;;20799948;28;20296;-79
2022/01/09 19:10:13;;;;;;;0.60;0.40;;;;;;;;;;20826603;28;20995;-79
2022/01/09 19:20:17;;;;;;;0.40;0.40;;;4.20;99.90;;;;;;20840210;28;20238;-79
2022/01/09 19:30:19;;;;;;;1.33;0.50;;;;;;;;;;20823232;28;20234;-79
2022/01/09 19:40:21;;;;;;;0.77;0.43;;;;;;;;;;20839520;28;20292;-79
2022/01/09 19:50:23;;;;;;;0.50;0.30;;;;;;;;;;20822603;28;20932;-79
2022/01/09 20:00:25;;;;;;;2.43;0.60;;;;;;;;;;20797889;28;20230;-80
2022/01/09 20:10:31;;;;;;;0.47;0.37;;;;;;;;;;20827867;28;20699;-78
2022/01/09 20:20:37;;;;;;;0.10;0.10;;;;;;;;;;20805191;28;20272;-81
2022/01/09 20:30:39;;;;;;;0.50;0.23;;;;;;;;;;20813268;28;20207;-79
2022/01/09 20:40:40;;;;;;;0.57;0.27;;;4.00;99.90;;;;;;20830809;28;20347;-79
2022/01/09 20:50:42;;;;;;;1.37;0.40;;;;;;;;;;20821263;28;20214;-79
2022/01/09 21:00:44;;;;;;;0.77;0.40;;;3.90;99.90;;;;;;20855789;28;20284;-79
2022/01/09 21:10:47;;;;;;;1.30;0.40;;;4.00;99.90;;;;;;20870080;28;20277;-79
2022/01/09 21:20:50;;;;;;;0.60;0.40;;;;;;;;;;20827404;28;20351;-79
2022/01/09 21:30:52;;;;;;;2.83;1.23;;;;;;;;;;20829725;28;20296;-78
2022/01/09 21:40:54;;;;;;;2.37;1.10;;;;;;;;;;20809499;28;20242;-78
2022/01/09 21:50:56;;;;;;;2.57;0.70;;;;;;;;;;20817868;28;20224;-78
2022/01/09 22:00:58;;;;;;;1.20;0.40;;;;;;;;;;20792769;28;20288;-78
2022/01/09 22:11:01;;;;;;;0.83;0.50;;;;;;;;;;20827250;28;20280;-79
2022/01/09 22:21:03;;;;;;;1.03;0.50;;;;;;;;;;20773016;28;20269;-78
2022/01/09 22:31:04;;;;;;;2.33;1.03;;;;;;;;;;20793402;28;20272;-78
2022/01/09 22:41:06;;;;;;;1.57;1.10;;;;;;;;;;20808134;28;20253;-79
2022/01/09 22:51:09;;;;;;;1.20;1.00;;;;;;;;;;20824601;28;20219;-79
2022/01/09 23:01:10;;;;;;;0.70;0.50;;;;;;;;;;20823778;28;20238;-80
2022/01/09 23:11:12;;;;;;;1.07;0.73;;;;;;;;;;20807171;28;20203;-79
2022/01/09 23:21:14;;;;;;;4.07;1.80;;;2.50;99.90;;;;;;20823374;28;20226;-79
2022/01/09 23:31:16;;;;;;;2.30;1.13;;;;;;;;;;20819134;28;20264;-78
2022/01/09 23:41:17;;;;;;;1.27;1.10;;;;;;;;;;20821933;28;20238;-77
2022/01/09 23:51:19;;;;;;;1.83;1.13;;;;;;;;;;20840072;28;20613;-78
